Time;durP1;ratioP1;P1;durP2;ratioP2;P2;SDS_P1;SDS_P2;PMS_P1;PMS_P2;Temp;Humidity;BMP_temperature;BMP_pressure;BME280_temperature;BME280_humidity;BME280_pressure;Samples;Min_cycle;Max_cycle;Signal;HPM_P1;HPM_P2
2023/06/18 00:00:56;;;;;;;;;;;20.50;55.20;;;;;;6099692;23;19988;-93
2023/06/18 00:03:22;;;;;;;;;;;20.50;55.30;;;;;;6100183;23;20342;-92
2023/06/18 00:05:48;;;;;;;;;;;20.50;55.30;;;;;;6099999;23;19944;-92
2023/06/18 00:08:14;;;;;;;;;;;20.50;55.30;;;;;;6075998;23;19916;-93
2023/06/18 00:10:40;;;;;;;;;;;20.50;55.30;;;;;;6076087;23;19925;-92
2023/06/18 00:13:05;;;;;;;;;;;20.50;55.30;;;;;;6076345;23;20246;-93
2023/06/18 00:15:32;;;;;;;;;;;20.50;55.40;;;;;;6076251;23;19996;-93
2023/06/18 00:17:57;;;;;;;;;;;20.50;55.30;;;;;;6100052;23;20120;-93
2023/06/18 00:20:23;;;;;;;;;;;20.50;55.40;;;;;;6075883;23;19916;-93
2023/06/18 00:22:53;;;;;;;;;;;20.40;55.90;;;;;;6099630;23;19944;-93
2023/06/18 00:25:19;;;;;;;;;;;20.50;55.50;;;;;;6076115;23;19913;-92
2023/06/18 00:27:46;;;;;;;;;;;20.40;55.40;;;;;;6099774;23;19905;-93
2023/06/18 00:30:15;;;;;;;;;;;20.40;55.40;;;;;;6075605;23;19913;-93
2023/06/18 00:32:43;;;;;;;;;;;20.50;55.50;;;;;;6100755;23;20323;-93
2023/06/18 00:35:10;;;;;;;;;;;20.40;55.20;;;;;;6102226;23;19909;-93
2023/06/18 00:37:36;;;;;;;;;;;20.40;55.20;;;;;;6078278;23;20378;-93
2023/06/18 00:40:02;;;;;;;;;;;20.40;55.30;;;;;;6102375;23;19905;-93
2023/06/18 00:42:28;;;;;;;;;;;20.40;55.40;;;;;;6103176;23;20346;-93
2023/06/18 00:44:54;;;;;;;;;;;20.40;55.30;;;;;;6102931;23;19905;-93
2023/06/18 00:47:21;;;;;;;;;;;20.40;55.30;;;;;;6102389;23;19909;-93
2023/06/18 00:49:47;;;;;;;;;;;20.40;55.40;;;;;;6102061;23;19931;-93
2023/06/18 00:52:13;;;;;;;;;;;20.40;55.20;;;;;;6102183;23;19980;-93
2023/06/18 00:54:45;;;;;;;;;;;20.30;55.30;;;;;;6101869;23;19917;-93
2023/06/18 00:57:17;;;;;;;;;;;20.30;55.20;;;;;;6101972;23;20319;-93
2023/06/18 00:59:46;;;;;;;;;;;20.40;55.50;;;;;;6101566;23;19909;-94
2023/06/18 01:02:23;;;;;;;;;;;20.30;55.30;;;;;;6101709;23;19940;-93
2023/06/18 01:05:08;;;;;;;;;;;20.30;55.30;;;;;;6101802;23;19920;-93
2023/06/18 01:07:39;;;;;;;;;;;20.30;55.30;;;;;;6101635;23;19909;-93
2023/06/18 01:10:05;;;;;;;;;;;20.30;55.30;;;;;;6101511;23;19904;-93
2023/06/18 01:12:33;;;;;;;;;;;20.30;55.30;;;;;;6101441;23;19905;-93
2023/06/18 01:14:59;;;;;;;;;;;20.30;55.20;;;;;;6102055;23;19915;-94
2023/06/18 01:17:33;;;;;;;;;;;20.30;55.30;;;;;;6101843;23;19909;-93
2023/06/18 01:20:08;;;;;;;;;;;20.30;55.30;;;;;;6101343;23;19905;-93
2023/06/18 01:22:41;;;;;;;;;;;20.30;55.40;;;;;;6101739;23;19905;-93
2023/06/18 01:25:08;;;;;;;;;;;20.30;55.30;;;;;;6101530;23;19936;-94
2023/06/18 01:27:40;;;;;;;;;;;20.30;55.30;;;;;;6076697;23;20350;-93
2023/06/18 01:30:15;;;;;;;;;;;20.30;55.30;;;;;;6101238;23;20298;-93
2023/06/18 01:32:50;;;;;;;;;;;20.20;55.20;;;;;;6102084;23;19905;-93
2023/06/18 01:35:16;;;;;;;;;;;20.30;55.40;;;;;;6102546;23;19967;-94
2023/06/18 01:38:01;;;;;;;;;;;20.30;55.30;;;;;;6102077;23;19905;-93
2023/06/18 01:40:27;;;;;;;;;;;20.20;55.40;;;;;;6102020;23;20555;-93
2023/06/18 01:43:02;;;;;;;;;;;20.30;55.30;;;;;;6102527;23;19976;-93
2023/06/18 01:45:38;;;;;;;;;;;20.20;55.20;;;;;;6102907;23;19988;-94
2023/06/18 01:48:06;;;;;;;;;;;20.20;55.30;;;;;;6102471;23;19908;-93
2023/06/18 01:50:35;;;;;;;;;;;20.20;55.30;;;;;;6101568;23;19905;-93
2023/06/18 01:53:02;;;;;;;;;;;20.20;55.50;;;;;;6098518;23;19912;-93
2023/06/18 01:55:33;;;;;;;;;;;20.20;55.40;;;;;;6073693;23;19905;-93
2023/06/18 01:57:59;;;;;;;;;;;20.20;55.40;;;;;;6072805;23;19905;-93
2023/06/18 02:00:25;;;;;;;;;;;20.20;55.30;;;;;;6071318;23;19910;-94
2023/06/18 02:02:58;;;;;;;;;;;20.20;55.40;;;;;;6072073;23;19912;-93
2023/06/18 02:05:27;;;;;;;;;;;20.20;55.30;;;;;;6072671;23;19992;-93
2023/06/18 02:07:52;;;;;;;;;;;20.20;55.30;;;;;;6072262;23;19909;-94
2023/06/18 02:10:18;;;;;;;;;;;20.20;55.30;;;;;;6069877;23;20279;-93
2023/06/18 02:12:44;;;;;;;;;;;20.10;55.20;;;;;;6072190;23;19956;-93
2023/06/18 02:15:13;;;;;;;;;;;20.10;55.20;;;;;;6072744;23;20342;-94
2023/06/18 02:17:38;;;;;;;;;;;20.10;55.30;;;;;;6067265;23;20290;-93
2023/06/18 02:20:08;;;;;;;;;;;20.20;55.40;;;;;;6071989;23;19905;-93
2023/06/18 02:22:34;;;;;;;;;;;20.10;55.20;;;;;;6072421;23;19909;-93
2023/06/18 02:25:01;;;;;;;;;;;20.10;55.30;;;;;;6072532;23;19987;-93
2023/06/18 02:27:30;;;;;;;;;;;20.10;55.30;;;;;;6072577;23;20155;-93
2023/06/18 02:29:56;;;;;;;;;;;20.10;55.30;;;;;;6072120;23;19910;-93
2023/06/18 02:32:22;;;;;;;;;;;20.10;55.30;;;;;;6072853;23;19964;-93
2023/06/18 02:34:53;;;;;;;;;;;20.10;55.40;;;;;;6073241;23;19909;-93
2023/06/18 02:37:24;;;;;;;;;;;20.10;55.30;;;;;;6072417;23;19991;-93
2023/06/18 02:40:00;;;;;;;;;;;20.10;55.30;;;;;;6071788;23;19905;-94
2023/06/18 02:42:28;;;;;;;;;;;20.10;55.40;;;;;;6072701;23;19984;-93
2023/06/18 02:45:12;;;;;;;;;;;20.10;55.40;;;;;;6072434;23;19912;-93
2023/06/18 02:47:38;;;;;;;;;;;20.10;55.30;;;;;;6071824;23;19986;-93
2023/06/18 02:50:08;;;;;;;;;;;20.70;55.80;;;;;;6071852;23;20263;-94
2023/06/18 02:52:40;;;;;;;;;;;20.10;55.30;;;;;;6071897;23;19984;-93
2023/06/18 02:55:09;;;;;;;;;;;20.00;55.40;;;;;;6094030;23;19913;-94
2023/06/18 02:57:43;;;;;;;;;;;20.30;55.50;;;;;;6096199;23;19905;-94
2023/06/18 03:00:10;;;;;;;;;;;20.10;55.40;;;;;;6096235;23;19912;-93
2023/06/18 03:02:39;;;;;;;;;;;20.00;55.40;;;;;;6095890;23;19909;-93
2023/06/18 03:05:05;;;;;;;;;;;20.00;55.40;;;;;;6095640;23;19905;-93
2023/06/18 03:07:34;;;;;;;;;;;20.00;55.40;;;;;;6096068;23;19956;-93
2023/06/18 03:10:03;;;;;;;;;;;20.00;55.50;;;;;;6095039;23;19906;-94
2023/06/18 03:12:33;;;;;;;;;;;20.00;55.50;;;;;;6095276;23;19913;-94
2023/06/18 03:15:02;;;;;;;;;;;20.00;55.60;;;;;;6094913;23;19909;-94
2023/06/18 03:17:36;;;;;;;;;;;20.00;55.50;;;;;;6095512;23;19917;-93
2023/06/18 03:20:11;;;;;;;;;;;20.00;55.50;;;;;;6073972;23;19913;-93
2023/06/18 03:22:39;;;;;;;;;;;20.00;55.50;;;;;;6095568;23;20308;-94
2023/06/18 03:25:11;;;;;;;;;;;20.00;55.60;;;;;;6095868;23;19905;-93
2023/06/18 03:27:40;;;;;;;;;;;20.00;55.60;;;;;;6095577;23;19913;-93
2023/06/18 03:30:09;;;;;;;;;;;20.00;55.60;;;;;;6094637;23;19941;-94
2023/06/18 03:32:40;;;;;;;;;;;19.90;55.50;;;;;;6096096;23;19928;-93
2023/06/18 03:35:05;;;;;;;;;;;19.90;55.60;;;;;;6095464;23;19910;-94
2023/06/18 03:37:44;;;;;;;;;;;19.90;55.60;;;;;;6095825;23;19905;-93
2023/06/18 03:40:16;;;;;;;;;;;19.90;55.60;;;;;;6095417;23;19905;-93
2023/06/18 03:42:57;;;;;;;;;;;19.90;55.60;;;;;;6095035;23;19913;-94
2023/06/18 03:45:33;;;;;;;;;;;;;;;;;;;;;
2023/06/18 03:48:02;;;;;;;;;;;19.90;55.70;;;;;;6096742;23;19988;-93
2023/06/18 03:50:45;;;;;;;;;;;19.90;55.60;;;;;;6095405;23;19909;-93
2023/06/18 03:53:16;;;;;;;;;;;19.90;55.60;;;;;;6098782;23;20682;-94
2023/06/18 03:55:42;;;;;;;;;;;19.90;55.70;;;;;;6099533;23;19934;-93
2023/06/18 03:58:18;;;;;;;;;;;19.90;55.70;;;;;;6098896;23;19909;-94
2023/06/18 04:00:44;;;;;;;;;;;19.90;55.70;;;;;;6099608;23;20319;-94
2023/06/18 04:03:18;;;;;;;;;;;19.90;55.70;;;;;;6099306;23;20345;-93
2023/06/18 04:05:44;;;;;;;;;;;19.90;55.80;;;;;;6099139;23;20283;-92
2023/06/18 04:08:12;;;;;;;;;;;19.90;55.70;;;;;;6100536;23;19924;-93
2023/06/18 04:10:38;;;;;;;;;;;19.90;55.90;;;;;;6099919;23;20165;-94
2023/06/18 04:13:06;;;;;;;;;;;19.90;55.90;;;;;;6101003;23;19912;-96
2023/06/18 04:15:32;;;;;;;;;;;19.90;56.00;;;;;;6100617;23;19937;-92
2023/06/18 04:17:58;;;;;;;;;;;19.80;55.90;;;;;;6100853;23;19909;-93
2023/06/18 04:20:35;;;;;;;;;;;19.80;55.90;;;;;;6100238;23;19912;-93
2023/06/18 04:23:21;;;;;;;;;;;19.80;56.00;;;;;;6102759;23;19913;-96
2023/06/18 04:25:51;;;;;;;;;;;19.80;56.00;;;;;;6127999;23;19920;-94
2023/06/18 04:28:36;;;;;;;;;;;19.80;56.10;;;;;;6099887;23;19909;-93
2023/06/18 04:31:02;;;;;;;;;;;19.80;56.20;;;;;;6097837;23;19905;-94
2023/06/18 04:33:31;;;;;;;;;;;19.90;56.20;;;;;;6094877;23;19963;-95
2023/06/18 04:35:57;;;;;;;;;;;19.80;56.20;;;;;;6098169;23;19983;-94
2023/06/18 04:38:29;;;;;;;;;;;19.80;56.30;;;;;;6098474;23;19933;-94
2023/06/18 04:40:57;;;;;;;;;;;19.80;56.30;;;;;;6099034;23;19905;-94
2023/06/18 04:43:25;;;;;;;;;;;19.80;56.50;;;;;;6098623;23;20311;-94
2023/06/18 04:45:52;;;;;;;;;;;19.80;56.50;;;;;;6098419;23;19963;-94
2023/06/18 04:48:23;;;;;;;;;;;19.80;56.80;;;;;;6099711;23;19909;-89
2023/06/18 04:51:09;;;;;;;;;;;19.90;56.70;;;;;;6099674;23;19983;-90
2023/06/18 04:53:35;;;;;;;;;;;19.80;56.60;;;;;;6095402;23;20312;-90
2023/06/18 04:56:01;;;;;;;;;;;19.80;56.60;;;;;;6047134;23;19914;-91
2023/06/18 04:58:27;;;;;;;;;;;19.90;56.50;;;;;;6070074;23;19936;-91
2023/06/18 05:00:53;;;;;;;;;;;19.80;56.40;;;;;;6046953;23;19964;-90
2023/06/18 05:03:23;;;;;;;;;;;19.80;56.50;;;;;;6070450;23;19906;-91
2023/06/18 05:05:48;;;;;;;;;;;19.80;56.50;;;;;;6047509;23;19917;-92
2023/06/18 05:08:14;;;;;;;;;;;19.80;56.40;;;;;;6045904;23;20009;-90
2023/06/18 05:10:40;;;;;;;;;;;19.80;56.60;;;;;;6046031;23;19914;-90
2023/06/18 05:13:06;;;;;;;;;;;19.80;56.60;;;;;;6070065;23;19909;-88
2023/06/18 05:15:31;;;;;;;;;;;19.80;57.20;;;;;;6069525;23;19906;-88
2023/06/18 05:17:57;;;;;;;;;;;19.80;56.70;;;;;;6045978;23;19983;-89
2023/06/18 05:20:23;;;;;;;;;;;19.80;56.70;;;;;;6070690;23;19911;-89
2023/06/18 05:22:48;;;;;;;;;;;19.80;56.70;;;;;;6071537;23;20280;-89
2023/06/18 05:25:14;;;;;;;;;;;19.80;56.70;;;;;;6047607;23;19924;-89
2023/06/18 05:27:40;;;;;;;;;;;19.80;56.90;;;;;;6047211;23;19917;-89
2023/06/18 05:30:07;;;;;;;;;;;19.80;56.90;;;;;;6048090;23;19932;-89
2023/06/18 05:32:33;;;;;;;;;;;19.90;57.10;;;;;;6048170;23;19934;-88
2023/06/18 05:34:59;;;;;;;;;;;19.80;57.20;;;;;;6047551;23;19913;-89
2023/06/18 05:37:25;;;;;;;;;;;19.80;57.30;;;;;;6045505;23;19964;-90
2023/06/18 05:40:07;;;;;;;;;;;19.90;57.40;;;;;;6047181;23;19913;-90
2023/06/18 05:42:33;;;;;;;;;;;19.80;57.50;;;;;;6072120;23;19905;-90
2023/06/18 05:45:00;;;;;;;;;;;19.90;57.70;;;;;;6072343;23;19933;-89
2023/06/18 05:47:26;;;;;;;;;;;19.90;58.10;;;;;;6071457;23;20322;-90
2023/06/18 05:50:20;;;;;;;;;;;20.30;58.20;;;;;;6046946;23;20319;-91
2023/06/18 05:52:46;;;;;;;;;;;19.90;58.00;;;;;;6072117;23;20200;-91
2023/06/18 05:55:12;;;;;;;;;;;19.90;58.00;;;;;;6089537;23;19992;-92
2023/06/18 05:57:38;;;;;;;;;;;19.90;58.00;;;;;;6071690;23;19914;-90
2023/06/18 06:00:03;;;;;;;;;;;19.90;58.00;;;;;;6072534;23;19941;-89
2023/06/18 06:02:29;;;;;;;;;;;20.00;58.10;;;;;;6095359;23;19913;-89
2023/06/18 06:04:55;;;;;;;;;;;20.00;58.10;;;;;;6095991;23;19988;-90
2023/06/18 06:07:40;;;;;;;;;;;19.90;58.20;;;;;;6095840;23;19988;-90
2023/06/18 06:10:22;;;;;;;;;;;20.00;58.40;;;;;;6096937;23;19905;-91
2023/06/18 06:12:48;;;;;;;;;;;20.00;58.30;;;;;;6096895;23;19992;-88
2023/06/18 06:15:14;;;;;;;;;;;20.00;58.50;;;;;;6072642;23;19932;-90
2023/06/18 06:17:59;;;;;;;;;;;20.00;58.40;;;;;;6072411;23;20216;-89
2023/06/18 06:20:45;;;;;;;;;;;20.00;58.40;;;;;;6095906;23;19906;-89
2023/06/18 06:23:10;;;;;;;;;;;20.10;58.40;;;;;;6095524;23;19905;-90
2023/06/18 06:25:36;;;;;;;;;;;20.10;58.40;;;;;;6094361;23;19971;-90
2023/06/18 06:28:05;;;;;;;;;;;20.10;58.30;;;;;;6095699;23;20231;-91
2023/06/18 06:30:50;;;;;;;;;;;20.10;58.30;;;;;;6072113;23;19992;-91
2023/06/18 06:33:16;;;;;;;;;;;20.10;58.30;;;;;;6095378;23;19909;-90
2023/06/18 06:35:42;;;;;;;;;;;20.10;58.30;;;;;;6096120;23;19957;-91
2023/06/18 06:38:07;;;;;;;;;;;20.20;58.40;;;;;;6095123;23;19993;-91
2023/06/18 06:40:33;;;;;;;;;;;20.20;58.40;;;;;;6071341;23;20217;-90
2023/06/18 06:43:19;;;;;;;;;;;20.20;58.50;;;;;;6072527;23;19917;-91
2023/06/18 06:46:04;;;;;;;;;;;20.20;58.40;;;;;;6095638;23;19913;-92
2023/06/18 06:48:30;;;;;;;;;;;20.20;58.30;;;;;;6095027;23;19933;-91
2023/06/18 06:50:56;;;;;;;;;;;20.30;58.30;;;;;;6095174;23;19912;-91
2023/06/18 06:53:25;;;;;;;;;;;20.30;58.20;;;;;;6096042;23;19906;-91
2023/06/18 06:56:10;;;;;;;;;;;20.30;58.20;;;;;;6047690;23;19947;-90
2023/06/18 06:58:36;;;;;;;;;;;20.30;58.10;;;;;;6070814;23;19906;-90
2023/06/18 07:01:02;;;;;;;;;;;20.40;58.00;;;;;;6047086;23;19940;-91
2023/06/18 07:03:27;;;;;;;;;;;20.40;58.00;;;;;;6047412;23;20344;-90
2023/06/18 07:05:53;;;;;;;;;;;20.40;58.00;;;;;;6047521;23;19920;-91
2023/06/18 07:08:22;;;;;;;;;;;20.50;58.00;;;;;;6071485;23;19981;-91
2023/06/18 07:10:47;;;;;;;;;;;20.50;57.90;;;;;;6047714;23;19917;-91
2023/06/18 07:13:13;;;;;;;;;;;20.50;57.80;;;;;;6072008;23;19905;-91
2023/06/18 07:16:02;;;;;;;;;;;20.60;57.80;;;;;;6047182;23;19996;-92
2023/06/18 07:18:28;;;;;;;;;;;20.90;57.90;;;;;;6071712;23;19909;-91
2023/06/18 07:20:53;;;;;;;;;;;20.60;57.50;;;;;;6047408;23;19969;-90
2023/06/18 07:23:19;;;;;;;;;;;20.60;57.50;;;;;;6071517;23;19913;-90
2023/06/18 07:25:45;;;;;;;;;;;20.70;57.30;;;;;;6046359;23;19920;-89
2023/06/18 07:28:10;;;;;;;;;;;20.70;57.10;;;;;;6070592;23;19909;-90
2023/06/18 07:30:36;;;;;;;;;;;20.80;57.10;;;;;;6070436;23;19928;-90
2023/06/18 07:33:04;;;;;;;;;;;20.80;57.00;;;;;;6047496;23;19937;-91
2023/06/18 07:35:30;;;;;;;;;;;20.80;56.80;;;;;;6046611;23;19984;-91
2023/06/18 07:37:55;;;;;;;;;;;20.90;56.80;;;;;;6047217;23;19947;-91
2023/06/18 07:40:21;;;;;;;;;;;21.00;56.90;;;;;;6071265;23;19909;-91
2023/06/18 07:43:10;;;;;;;;;;;20.90;56.70;;;;;;6072006;23;20238;-92
2023/06/18 07:45:36;;;;;;;;;;;21.00;56.60;;;;;;6072096;23;20332;-91
2023/06/18 07:48:01;;;;;;;;;;;21.10;56.30;;;;;;6047312;23;19956;-91
2023/06/18 07:50:50;;;;;;;;;;;21.10;56.00;;;;;;6047589;23;19909;-92
2023/06/18 07:53:16;;;;;;;;;;;21.10;55.90;;;;;;6071566;23;20004;-93
2023/06/18 07:55:41;;;;;;;;;;;21.10;56.30;;;;;;6069851;23;19949;-93
2023/06/18 07:58:07;;;;;;;;;;;21.20;56.10;;;;;;6071125;23;20000;-93
2023/06/18 08:00:42;;;;;;;;;;;21.20;56.10;;;;;;6093991;23;19906;-93
2023/06/18 08:03:48;;;;;;;;;;;21.20;56.00;;;;;;6095663;23;19910;-94
2023/06/18 08:06:16;;;;;;;;;;;21.30;56.00;;;;;;6065403;23;19941;-93
2023/06/18 08:08:42;;;;;;;;;;;21.30;56.40;;;;;;6040250;23;19905;-93
2023/06/18 08:11:08;;;;;;;;;;;21.40;56.30;;;;;;6017230;23;19914;-93
2023/06/18 08:13:39;;;;;;;;;;;21.40;56.30;;;;;;6040135;23;19917;-92
2023/06/18 08:16:14;;;;;;;;;;;21.40;56.40;;;;;;6041136;23;19949;-93
2023/06/18 08:18:42;;;;;;;;;;;21.40;56.50;;;;;;6040599;23;19988;-93
2023/06/18 08:21:11;;;;;;;;;;;21.50;56.10;;;;;;6040985;23;19909;-92
2023/06/18 08:24:02;;;;;;;;;;;21.50;55.80;;;;;;6017252;23;19997;-92
2023/06/18 08:26:35;;;;;;;;;;;21.60;55.70;;;;;;6040661;23;19917;-94
2023/06/18 08:29:06;;;;;;;;;;;21.70;55.80;;;;;;6017016;23;19910;-92
2023/06/18 08:31:52;;;;;;;;;;;21.70;55.70;;;;;;6016739;23;19917;-92
2023/06/18 08:34:20;;;;;;;;;;;21.60;55.70;;;;;;6042061;23;20005;-93
2023/06/18 08:37:09;;;;;;;;;;;21.70;55.70;;;;;;6053997;23;19906;-92
2023/06/18 08:39:54;;;;;;;;;;;21.80;55.70;;;;;;6093987;23;19905;-93
2023/06/18 08:42:22;;;;;;;;;;;21.80;55.90;;;;;;6094784;23;19984;-93
2023/06/18 08:45:10;;;;;;;;;;;21.90;55.70;;;;;;6071524;23;19921;-92
2023/06/18 08:47:38;;;;;;;;;;;21.90;55.60;;;;;;6093641;23;19922;-93
2023/06/18 08:50:24;;;;;;;;;;;21.90;55.20;;;;;;6070792;23;19909;-91
2023/06/18 08:52:58;;;;;;;;;;;21.90;55.20;;;;;;6094394;23;20335;-93
2023/06/18 08:55:27;;;;;;;;;;;21.90;54.90;;;;;;6072221;23;19929;-91
2023/06/18 08:58:16;;;;;;;;;;;22.00;55.80;;;;;;6071964;23;20000;-92
2023/06/18 09:00:44;;;;;;;;;;;22.30;55.70;;;;;;6095311;23;19909;-92
2023/06/18 09:03:10;;;;;;;;;;;22.10;54.60;;;;;;6072414;23;19917;-92
2023/06/18 09:05:40;;;;;;;;;;;22.10;55.00;;;;;;6072521;23;19910;-92
2023/06/18 09:08:06;;;;;;;;;;;22.10;54.50;;;;;;6096365;23;19905;-92
2023/06/18 09:10:44;;;;;;;;;;;22.10;54.10;;;;;;6072598;23;19980;-94
2023/06/18 09:13:16;;;;;;;;;;;22.20;54.00;;;;;;6074678;23;19909;-93
2023/06/18 09:15:41;;;;;;;;;;;22.20;53.40;;;;;;6073518;23;19941;-91
2023/06/18 09:18:17;;;;;;;;;;;22.20;53.30;;;;;;6072702;23;20394;-91
2023/06/18 09:20:48;;;;;;;;;;;22.20;53.50;;;;;;6072130;23;19921;-92
2023/06/18 09:23:14;;;;;;;;;;;22.30;53.00;;;;;;6096348;23;19911;-91
2023/06/18 09:26:11;;;;;;;;;;;22.30;52.40;;;;;;6072459;23;19937;-92
2023/06/18 09:28:39;;;;;;;;;;;22.40;52.50;;;;;;6073066;23;19917;-92
2023/06/18 09:31:06;;;;;;;;;;;22.40;52.20;;;;;;6071786;23;19916;-90
2023/06/18 09:33:41;;;;;;;;;;;22.40;51.80;;;;;;6072062;23;19914;-93
2023/06/18 09:36:10;;;;;;;;;;;22.40;51.00;;;;;;6096792;23;19928;-91
2023/06/18 09:38:56;;;;;;;;;;;22.40;51.20;;;;;;6072928;23;19916;-90
2023/06/18 09:41:21;;;;;;;;;;;22.40;51.10;;;;;;6091622;23;19912;-89
2023/06/18 09:43:48;;;;;;;;;;;22.50;51.10;;;;;;6096376;23;20239;-90
2023/06/18 09:46:33;;;;;;;;;;;22.50;51.20;;;;;;6071990;23;19960;-91
2023/06/18 09:49:19;;;;;;;;;;;22.50;50.90;;;;;;6094702;23;19905;-89
2023/06/18 09:51:51;;;;;;;;;;;22.50;52.00;;;;;;6094825;23;19960;-92
2023/06/18 09:54:17;;;;;;;;;;;22.50;51.40;;;;;;6072831;23;19910;-91
2023/06/18 09:57:15;;;;;;;;;;;22.50;51.10;;;;;;6095975;23;20501;-90
2023/06/18 09:59:41;;;;;;;;;;;22.50;50.90;;;;;;6094682;23;19905;-89
2023/06/18 10:02:13;;;;;;;;;;;22.60;51.40;;;;;;6071833;23;19909;-90
2023/06/18 10:04:59;;;;;;;;;;;22.60;51.10;;;;;;6072727;23;19921;-89
2023/06/18 10:07:24;;;;;;;;;;;22.60;52.00;;;;;;6095141;23;19909;-91
2023/06/18 10:09:50;;;;;;;;;;;22.70;52.40;;;;;;6070626;23;19910;-90
2023/06/18 10:12:36;;;;;;;;;;;22.70;51.70;;;;;;6071897;23;19916;-91
2023/06/18 10:15:02;;;;;;;;;;;22.70;52.00;;;;;;6095770;23;19942;-91
2023/06/18 10:17:48;;;;;;;;;;;22.70;52.60;;;;;;6072023;23;19913;-91
2023/06/18 10:20:33;;;;;;;;;;;22.70;52.50;;;;;;6095426;23;20268;-90
2023/06/18 10:23:00;;;;;;;;;;;22.70;52.80;;;;;;6095780;23;19909;-91
2023/06/18 10:25:29;;;;;;;;;;;22.70;51.80;;;;;;6072105;23;19940;-84
2023/06/18 10:27:55;;;;;;;;;;;22.70;52.10;;;;;;6071619;23;20328;-85
2023/06/18 10:30:40;;;;;;;;;;;22.70;51.50;;;;;;6096118;23;19912;-84
2023/06/18 10:33:06;;;;;;;;;;;22.60;51.40;;;;;;6094525;23;19910;-84
2023/06/18 10:35:51;;;;;;;;;;;22.60;52.00;;;;;;6095782;23;19952;-86
2023/06/18 10:38:17;;;;;;;;;;;22.70;52.50;;;;;;6095342;23;19963;-85
2023/06/18 10:40:43;;;;;;;;;;;22.70;52.30;;;;;;6070865;23;19913;-85
2023/06/18 10:43:09;;;;;;;;;;;22.70;53.30;;;;;;6094683;23;20235;-85
2023/06/18 10:45:34;;;;;;;;;;;22.70;52.80;;;;;;6094027;23;19912;-85
2023/06/18 10:48:15;;;;;;;;;;;22.70;53.30;;;;;;6094316;23;19943;-86
2023/06/18 10:50:41;;;;;;;;;;;22.60;52.60;;;;;;6070407;23;20309;-85
2023/06/18 10:53:22;;;;;;;;;;;22.60;51.90;;;;;;6094681;23;19932;-85
2023/06/18 10:55:56;;;;;;;;;;;22.60;51.70;;;;;;6069767;23;19981;-85
2023/06/18 10:58:42;;;;;;;;;;;22.60;51.50;;;;;;6098641;23;20271;-84
2023/06/18 11:01:22;;;;;;;;;;;22.30;51.50;;;;;;6121968;23;19984;-84
2023/06/18 11:04:07;;;;;;;;;;;22.50;52.00;;;;;;6074007;23;19960;-84
2023/06/18 11:06:33;;;;;;;;;;;22.60;52.20;;;;;;6121001;23;20212;-85
2023/06/18 11:08:58;;;;;;;;;;;22.60;52.30;;;;;;6073467;23;19913;-85
2023/06/18 11:11:25;;;;;;;;;;;22.60;52.00;;;;;;6123546;23;19951;-85
2023/06/18 11:13:53;;;;;;;;;;;22.50;51.80;;;;;;6074753;23;19965;-85
2023/06/18 11:16:19;;;;;;;;;;;22.50;51.70;;;;;;6098391;23;20311;-86
2023/06/18 11:18:45;;;;;;;;;;;22.50;51.40;;;;;;6073777;23;19915;-85
2023/06/18 11:21:34;;;;;;;;;;;22.50;51.40;;;;;;6124231;23;19905;-85
2023/06/18 11:23:59;;;;;;;;;;;22.50;51.70;;;;;;6097156;23;19932;-84
2023/06/18 11:26:45;;;;;;;;;;;22.50;51.70;;;;;;6098634;23;19920;-84
2023/06/18 11:29:31;;;;;;;;;;;22.50;51.00;;;;;;6098215;23;19980;-85
2023/06/18 11:31:56;;;;;;;;;;;22.50;51.10;;;;;;6097541;23;19940;-85
2023/06/18 11:34:22;;;;;;;;;;;22.50;50.80;;;;;;6098808;23;19909;-85
2023/06/18 11:36:48;;;;;;;;;;;22.50;51.40;;;;;;6074693;23;19909;-84
2023/06/18 11:39:13;;;;;;;;;;;22.40;50.90;;;;;;6125355;23;20283;-85
2023/06/18 11:41:39;;;;;;;;;;;22.40;52.00;;;;;;6099516;23;19927;-84
2023/06/18 11:44:04;;;;;;;;;;;22.40;50.90;;;;;;6075283;23;20338;-85
2023/06/18 11:46:35;;;;;;;;;;;22.40;50.90;;;;;;6099973;23;20349;-84
2023/06/18 11:49:20;;;;;;;;;;;22.40;51.10;;;;;;6075880;23;19913;-84
2023/06/18 11:52:06;;;;;;;;;;;22.40;51.20;;;;;;6099143;23;19955;-85
2023/06/18 11:54:51;;;;;;;;;;;22.40;51.30;;;;;;6123878;23;20220;-84
2023/06/18 11:57:17;;;;;;;;;;;22.40;51.70;;;;;;6093019;23;19924;-84
2023/06/18 12:00:08;;;;;;;;;;;22.40;51.20;;;;;;6069920;23;19909;-85
2023/06/18 12:02:34;;;;;;;;;;;22.40;51.50;;;;;;6093700;23;20466;-85
2023/06/18 12:05:04;;;;;;;;;;;22.50;52.00;;;;;;6069436;23;19909;-84
2023/06/18 12:07:49;;;;;;;;;;;22.40;51.70;;;;;;6069000;23;20208;-84
2023/06/18 12:10:35;;;;;;;;;;;22.50;52.80;;;;;;6093215;23;19956;-84
2023/06/18 12:13:18;;;;;;;;;;;22.50;52.90;;;;;;6093823;23;19905;-84
2023/06/18 12:15:47;;;;;;;;;;;23.00;52.30;;;;;;6069556;23;19913;-84
2023/06/18 12:18:23;;;;;;;;;;;22.50;53.40;;;;;;6092321;23;19905;-88
2023/06/18 12:20:49;;;;;;;;;;;22.50;53.00;;;;;;6069617;23;19915;-84
2023/06/18 12:23:35;;;;;;;;;;;22.50;52.40;;;;;;6094239;23;19929;-84
2023/06/18 12:26:00;;;;;;;;;;;22.50;52.10;;;;;;6092742;23;20227;-84
2023/06/18 12:28:29;;;;;;;;;;;22.50;52.70;;;;;;6094504;23;19905;-84
2023/06/18 12:30:54;;;;;;;;;;;22.50;51.90;;;;;;6069873;23;19909;-89
2023/06/18 12:33:20;;;;;;;;;;;22.50;52.50;;;;;;6094209;23;19905;-89
2023/06/18 12:36:06;;;;;;;;;;;22.50;52.30;;;;;;6094431;23;20323;-91
2023/06/18 12:39:01;;;;;;;;;;;22.50;52.30;;;;;;6095630;23;19905;-91
2023/06/18 12:41:46;;;;;;;;;;;22.50;52.00;;;;;;6096069;23;19916;-91
2023/06/18 12:44:12;;;;;;;;;;;22.50;51.80;;;;;;6095882;23;19912;-92
2023/06/18 12:46:38;;;;;;;;;;;22.50;51.60;;;;;;6095697;23;19952;-90
2023/06/18 12:49:07;;;;;;;;;;;22.50;51.40;;;;;;6071585;23;20539;-90
2023/06/18 12:52:03;;;;;;;;;;;22.40;51.00;;;;;;6072958;23;20352;-91
2023/06/18 12:54:31;;;;;;;;;;;22.40;50.70;;;;;;6096494;23;19920;-93
2023/06/18 12:57:17;;;;;;;;;;;22.50;50.70;;;;;;6072340;23;20038;-92
2023/06/18 13:00:08;;;;;;;;;;;22.90;51.60;;;;;;6095755;23;19906;-91
2023/06/18 13:02:34;;;;;;;;;;;22.50;52.30;;;;;;6095092;23;19905;-95
2023/06/18 13:05:23;;;;;;;;;;;22.60;52.30;;;;;;6071879;23;19909;-93
2023/06/18 13:07:58;;;;;;;;;;;22.60;51.50;;;;;;6096315;23;20343;-89
2023/06/18 13:10:26;;;;;;;;;;;22.50;50.80;;;;;;6072201;23;19913;-94
2023/06/18 13:12:52;;;;;;;;;;;22.60;50.80;;;;;;6072680;23;19913;-90
2023/06/18 13:15:20;;;;;;;;;;;22.50;50.90;;;;;;6071726;23;19943;-91
2023/06/18 13:17:49;;;;;;;;;;;22.50;51.40;;;;;;6072241;23;19955;-94
2023/06/18 13:20:17;;;;;;;;;;;22.50;51.10;;;;;;6071816;23;20328;-92
2023/06/18 13:22:43;;;;;;;;;;;22.50;51.20;;;;;;6073461;23;19974;-93
2023/06/18 13:25:09;;;;;;;;;;;22.50;51.70;;;;;;6072417;23;19944;-91
2023/06/18 13:27:40;;;;;;;;;;;22.60;51.00;;;;;;6095914;23;19921;-89
2023/06/18 13:30:26;;;;;;;;;;;22.50;50.40;;;;;;6071167;23;19909;-92
2023/06/18 13:33:10;;;;;;;;;;;22.60;52.10;;;;;;6096257;23;19928;-92
2023/06/18 13:35:36;;;;;;;;;;;22.60;51.60;;;;;;6096084;23;19912;-92
2023/06/18 13:38:02;;;;;;;;;;;22.60;51.60;;;;;;6071553;23;19992;-88
2023/06/18 13:40:28;;;;;;;;;;;22.50;51.60;;;;;;6095617;23;19906;-91
2023/06/18 13:43:14;;;;;;;;;;;22.60;50.80;;;;;;6072822;23;19913;-91
2023/06/18 13:45:39;;;;;;;;;;;22.50;51.40;;;;;;6096819;23;19905;-91
2023/06/18 13:48:25;;;;;;;;;;;22.60;51.10;;;;;;6071798;23;20316;-89
2023/06/18 13:50:51;;;;;;;;;;;22.50;51.40;;;;;;6096411;23;19905;-90
2023/06/18 13:53:17;;;;;;;;;;;22.60;51.00;;;;;;6097100;23;19933;-91
2023/06/18 13:55:51;;;;;;;;;;;22.60;50.80;;;;;;6072124;23;19909;-91
2023/06/18 13:58:17;;;;;;;;;;;22.60;51.80;;;;;;6094656;23;20000;-92
2023/06/18 14:00:44;;;;;;;;;;;22.60;50.30;;;;;;6072336;23;19941;-90
2023/06/18 14:03:10;;;;;;;;;;;22.50;50.10;;;;;;6097131;23;20235;-90
2023/06/18 14:05:36;;;;;;;;;;;22.50;49.70;;;;;;6073196;23;19910;-90
2023/06/18 14:08:03;;;;;;;;;;;22.50;50.30;;;;;;6072069;23;20000;-91
2023/06/18 14:10:29;;;;;;;;;;;22.50;49.20;;;;;;6072290;23;19914;-89
2023/06/18 14:13:15;;;;;;;;;;;22.50;50.10;;;;;;6072264;23;19913;-90
2023/06/18 14:15:40;;;;;;;;;;;22.60;49.80;;;;;;6096634;23;19905;-90
2023/06/18 14:18:09;;;;;;;;;;;22.60;50.30;;;;;;6071577;23;19961;-91
2023/06/18 14:20:34;;;;;;;;;;;22.50;49.40;;;;;;6095951;23;19956;-89
2023/06/18 14:23:01;;;;;;;;;;;22.60;50.20;;;;;;6072003;23;20267;-88
2023/06/18 14:25:27;;;;;;;;;;;22.60;51.30;;;;;;6095736;23;20383;-90
2023/06/18 14:27:53;;;;;;;;;;;22.60;50.80;;;;;;6096059;23;19913;-91
2023/06/18 14:30:18;;;;;;;;;;;22.70;51.70;;;;;;6097079;23;20683;-90
2023/06/18 14:32:46;;;;;;;;;;;22.70;52.10;;;;;;6072457;23;19909;-90
2023/06/18 14:35:12;;;;;;;;;;;22.70;52.00;;;;;;6072980;23;19909;-90
2023/06/18 14:37:41;;;;;;;;;;;22.70;51.70;;;;;;6071955;23;19913;-95
2023/06/18 14:40:35;;;;;;;;;;;23.10;50.90;;;;;;6071330;23;19909;-93
2023/06/18 14:43:01;;;;;;;;;;;22.60;50.20;;;;;;6095864;23;19929;-94